Spring Mountain Youth Camp, Nevada Weather observations

Data are for 60 minute period ending at time listed.
 Day   Time   Solar   Ave.   Ave.  Ave.  Vector  Max.   Baro.   Total    
  of    of     Rad.   Air    Rel.  Wind   Wind   Wind  Press.  Precip.   
Year   Day            Temp.  Hum.  Speed  Dir.   Gust                    
2014   (PST)  Kw/m2    F      %     mph   deg.    mph    mb.     in.     
-------------------------------------------------------------------------
 292   20:00   0.00   50.5    41    1.1   345     4.1   791.5    0.00 
 292   21:00   0.00   51.2    39    1.0   337     3.9   791.6    0.00 
 292   22:00   0.00   51.1    40    3.2    87     4.4   791.6    0.00 
 292   23:00   0.00   50.4    43    3.7   128     6.9   791.6    0.00 
 293    0:00   0.00   49.8    44    5.9   152     9.1   791.5    0.00 
 293    1:00   0.00   49.8    42    7.0   157    11.0   791.4    0.00 
 293    2:00   0.00   49.9    39    7.9   158    12.4   791.3    0.00 
 293    3:00   0.00   49.9    40    7.4   157    11.2   791.2    0.00 
 293    4:00   0.00   49.6    42    6.3   154    10.7   791.2    0.00 
 293    5:00   0.00   49.0    46    6.5   158    10.7   791.2    0.00 
 293    6:00   0.00   48.5    48    6.2   155     9.5   791.3    0.00 
 293    7:00   0.04   48.9    48    6.9   160    12.1   791.4    0.00 
 293    8:00   0.29   54.0    42   10.7   165    17.2   791.9    0.00 
 293    9:00   0.48   56.6    38   13.4   165    22.5   792.2    0.00 
 293   10:00   0.64   57.9    36   13.8   163    24.8   792.2    0.00 
 293   11:00   0.70   58.9    36   14.2   165    24.4   792.0    0.00 
 293   12:00   0.81   59.9    34   15.2   165    24.8   791.6    0.00 
 293   13:00   0.85   61.7    32   12.3   170    24.7   791.3    0.00 
 293   14:00   0.74   61.3    32   11.7   174    24.5   791.2    0.00 
 293   15:00   0.44   58.7    36   12.5   168    22.8   791.0    0.00 
 293   16:00   0.13   55.0    42   14.2   170    22.9   790.7    0.00 
 293   17:00   0.04   52.7    45   15.0   169    24.1   790.4    0.00 
 293   18:00   0.00   51.1    50   16.9   174    24.8   790.3    0.00 
 293   19:00   0.00   50.3    51   15.0   168    23.9   790.2    0.00 

Return to Spring Mountain Youth Camp graphs page.


Western Regional Climate Center,wrcc@dri.edu